Hamshire, Texas
Current Conditions -  °F | °C
As of 7:15 PM on Friday 31 Oct 2014 (Local Time) from KBMT Reporting Station
Clear Clear  
Wind Chill: 63°   Ceiling: Unl
Heat Index: 63°   Visibility: 10mi
Dew Point: 46°   Wind: 7mph
Humidity: 53%   Direction: 360°N
Pressure: 30.18"   Gusts: NA
Location:  29.86°N, 94.31°W
Report Text: KBMT 010015Z AUTO 36006KT 10SM CLR 17/08 A3018 RMK AO2 T01730076
Loading
Personal Weather Stations






























Interactive Weather Map
Tropical Storm Tracking
New forecast layout! Learn more

10-Day Weather Forecast

Advertisements
Track Severe Weather on mobile